Time,TemperatureF,DewpointF,PressureIn,WindDirection,WindDirectionDegrees,WindSpeedMPH,WindSpeedGustMPH,Humidity,HourlyPrecipIn,Conditions,Clouds,dailyrainin,SoftwareType,DateUTC
2013-04-23 00:01:00,38.0,28.7,30.13,North,0,0.0,0.0,69,0.00,,,0.00,WUHU216HW,2013-04-23 04:01:00,
2013-04-23 00:06:00,38.0,28.7,30.13,North,0,0.0,0.0,69,0.00,,,0.00,WUHU216HW,2013-04-23 04:06:00,
2013-04-23 00:29:00,37.6,29.1,30.12,North,0,0.0,0.0,71,0.00,,,0.00,WUHU216HW,2013-04-23 04:29:00,
2013-04-23 00:34:00,37.6,29.1,30.12,North,0,0.0,0.0,71,0.00,,,0.00,WUHU216HW,2013-04-23 04:34:00,
2013-04-23 00:59:00,37.3,28.8,30.11,North,0,0.0,0.0,71,0.00,,,0.00,WUHU216HW,2013-04-23 04:59:00,
2013-04-23 01:04:00,37.3,28.8,30.11,North,0,0.0,0.0,71,0.00,,,0.00,WUHU216HW,2013-04-23 05:04:00,
2013-04-23 01:29:00,37.1,28.9,30.09,North,0,0.0,0.0,72,0.00,,,0.00,WUHU216HW,2013-04-23 05:29:00,
2013-04-23 01:34:00,37.1,28.9,30.09,North,0,0.0,0.0,72,0.00,,,0.00,WUHU216HW,2013-04-23 05:34:00,
2013-04-23 01:59:00,38.0,30.1,30.08,North,0,0.0,0.0,73,0.00,,,0.00,WUHU216HW,2013-04-23 05:59:00,
2013-04-23 02:04:00,38.0,30.1,30.08,North,0,0.0,0.0,73,0.00,,,0.00,WUHU216HW,2013-04-23 06:04:00,
2013-04-23 02:29:00,38.7,30.8,30.06,North,0,0.0,0.0,73,0.00,,,0.00,WUHU216HW,2013-04-23 06:29:00,
2013-04-23 02:34:00,38.7,30.8,30.06,North,0,0.0,0.0,73,0.00,,,0.00,WUHU216HW,2013-04-23 06:34:00,
2013-04-23 02:59:00,39.2,31.2,30.05,North,0,0.0,0.0,73,0.00,,,0.00,WUHU216HW,2013-04-23 06:59:00,
2013-04-23 03:04:00,39.2,31.2,30.05,North,0,0.0,0.0,73,0.00,,,0.00,WUHU216HW,2013-04-23 07:04:00,
2013-04-23 03:29:00,39.6,31.6,30.05,North,0,0.0,0.0,73,0.00,,,0.00,WUHU216HW,2013-04-23 07:29:00,
2013-04-23 03:34:00,39.6,31.6,30.05,North,0,0.0,0.0,73,0.00,,,0.00,WUHU216HW,2013-04-23 07:34:00,
2013-04-23 03:59:00,40.0,31.6,30.04,North,0,0.0,0.0,72,0.00,,,0.00,WUHU216HW,2013-04-23 07:59:00,
2013-04-23 04:04:00,40.0,31.6,30.04,North,0,0.0,0.0,72,0.00,,,0.00,WUHU216HW,2013-04-23 08:04:00,
2013-04-23 04:29:00,40.1,32.5,30.03,North,0,0.0,0.0,74,0.00,,,0.00,WUHU216HW,2013-04-23 08:29:00,
2013-04-23 04:34:00,40.1,32.5,30.03,North,0,0.0,0.0,74,0.00,,,0.00,WUHU216HW,2013-04-23 08:34:00,
2013-04-23 04:59:00,40.3,32.7,30.02,North,0,0.0,0.0,74,0.00,,,0.00,WUHU216HW,2013-04-23 08:59:00,
2013-04-23 05:04:00,40.3,32.7,30.02,North,0,0.0,0.0,74,0.00,,,0.00,WUHU216HW,2013-04-23 09:04:00,
2013-04-23 05:29:00,40.3,32.7,30.02,North,0,0.0,0.0,74,0.00,,,0.00,WUHU216HW,2013-04-23 09:29:00,
2013-04-23 05:34:00,40.3,32.7,30.02,North,0,0.0,0.0,74,0.00,,,0.00,WUHU216HW,2013-04-23 09:34:00,
2013-04-23 05:59:00,40.5,33.5,30.02,North,0,0.0,0.0,76,0.00,,,0.00,WUHU216HW,2013-04-23 09:59:00,
2013-04-23 06:04:00,40.5,33.5,30.02,North,0,0.0,0.0,76,0.00,,,0.00,WUHU216HW,2013-04-23 10:04:00,
2013-04-23 06:29:00,40.3,33.9,30.02,North,0,0.0,0.0,78,0.00,,,0.00,WUHU216HW,2013-04-23 10:29:00,
2013-04-23 06:34:00,40.3,33.9,30.02,North,0,0.0,0.0,78,0.00,,,0.00,WUHU216HW,2013-04-23 10:34:00,
2013-04-23 06:59:00,40.3,34.7,30.02,North,0,0.0,0.0,80,0.00,,,0.00,WUHU216HW,2013-04-23 10:59:00,
2013-04-23 07:04:00,40.3,34.7,30.02,North,0,0.0,0.0,80,0.00,,,0.00,WUHU216HW,2013-04-23 11:04:00,
2013-04-23 07:29:00,40.1,35.1,30.01,North,0,0.0,0.0,82,0.00,,,0.00,WUHU216HW,2013-04-23 11:29:00,
2013-04-23 07:34:00,40.1,35.1,30.01,North,0,0.0,0.0,82,0.00,,,0.00,WUHU216HW,2013-04-23 11:34:00,
2013-04-23 07:59:00,40.1,35.6,30.01,North,0,0.0,0.0,84,0.00,,,0.00,WUHU216HW,2013-04-23 11:59:00,
2013-04-23 08:04:00,40.1,35.6,30.01,North,0,0.0,0.0,84,0.00,,,0.00,WUHU216HW,2013-04-23 12:04:00,
2013-04-23 08:29:00,40.5,36.6,30.01,North,0,0.0,0.0,86,0.00,,,0.00,WUHU216HW,2013-04-23 12:29:00,
2013-04-23 08:34:00,40.5,36.6,30.01,North,0,0.0,0.0,86,0.00,,,0.00,WUHU216HW,2013-04-23 12:34:00,
2013-04-23 08:59:00,40.7,37.1,30.00,North,0,0.0,0.0,87,0.00,,,0.00,WUHU216HW,2013-04-23 12:59:00,
2013-04-23 09:04:00,40.7,37.1,30.00,North,0,0.0,0.0,87,0.00,,,0.00,WUHU216HW,2013-04-23 13:04:00,
2013-04-23 09:29:00,40.9,37.3,29.99,North,0,0.0,0.0,87,0.00,,,0.00,WUHU216HW,2013-04-23 13:29:00,
2013-04-23 09:34:00,40.9,37.3,29.99,North,0,0.0,0.0,87,0.00,,,0.00,WUHU216HW,2013-04-23 13:34:00,
2013-04-23 09:59:00,40.9,37.5,29.99,North,0,0.0,0.0,88,0.00,,,0.00,WUHU216HW,2013-04-23 13:59:00,
2013-04-23 10:04:00,40.9,37.5,29.99,North,0,0.0,0.0,88,0.00,,,0.00,WUHU216HW,2013-04-23 14:04:00,
2013-04-23 10:29:00,41.0,38.1,29.98,North,0,0.0,0.0,89,0.00,,,0.00,WUHU216HW,2013-04-23 14:29:00,
2013-04-23 10:34:00,41.0,38.1,29.98,North,0,0.0,0.0,89,0.00,,,0.00,WUHU216HW,2013-04-23 14:34:00,
2013-04-23 10:59:00,41.4,38.4,29.97,North,0,0.0,0.0,89,0.00,,,0.00,WUHU216HW,2013-04-23 14:59:00,
2013-04-23 11:04:00,41.4,38.4,29.97,North,0,0.0,0.0,89,0.00,,,0.00,WUHU216HW,2013-04-23 15:04:00,
2013-04-23 11:29:00,41.6,38.6,29.97,North,0,0.0,0.0,89,0.00,,,0.00,WUHU216HW,2013-04-23 15:29:00,
2013-04-23 11:34:00,41.6,38.6,29.97,North,0,0.0,0.0,89,0.00,,,0.00,WUHU216HW,2013-04-23 15:34:00,
2013-04-23 11:59:00,41.4,38.7,29.96,North,0,0.0,0.0,90,0.00,,,0.00,WUHU216HW,2013-04-23 15:59:00,
2013-04-23 12:04:00,41.4,38.7,29.96,North,0,0.0,0.0,90,0.00,,,0.00,WUHU216HW,2013-04-23 16:04:00,
2013-04-23 12:29:00,41.6,38.9,29.94,North,0,0.0,0.0,90,0.00,,,0.00,WUHU216HW,2013-04-23 16:29:00,
2013-04-23 12:34:00,41.6,38.9,29.94,North,0,0.0,0.0,90,0.00,,,0.00,WUHU216HW,2013-04-23 16:34:00,
2013-04-23 12:59:00,41.8,39.1,29.92,North,0,0.0,0.0,90,0.00,,,0.00,WUHU216HW,2013-04-23 16:59:00,
2013-04-23 13:04:00,41.8,39.1,29.92,North,0,0.0,0.0,90,0.00,,,0.00,WUHU216HW,2013-04-23 17:04:00,
2013-04-23 13:29:00,42.1,39.4,29.92,North,0,0.0,0.0,90,0.00,,,0.00,WUHU216HW,2013-04-23 17:29:00,
2013-04-23 13:34:00,42.1,39.4,29.92,North,0,0.0,0.0,90,0.00,,,0.00,WUHU216HW,2013-04-23 17:34:00,
2013-04-23 13:59:00,42.1,39.4,29.90,North,0,0.0,0.0,90,0.00,,,0.00,WUHU216HW,2013-04-23 17:59:00,
2013-04-23 14:04:00,42.1,39.4,29.90,North,0,0.0,0.0,90,0.00,,,0.00,WUHU216HW,2013-04-23 18:04:00,
2013-04-23 14:29:00,41.9,39.2,29.88,North,0,0.0,0.0,90,0.00,,,0.00,WUHU216HW,2013-04-23 18:29:00,
2013-04-23 14:34:00,41.9,39.2,29.88,North,0,0.0,0.0,90,0.00,,,0.00,WUHU216HW,2013-04-23 18:34:00,
2013-04-23 14:59:00,41.8,39.1,29.86,North,0,0.0,0.0,90,0.00,,,0.00,WUHU216HW,2013-04-23 18:59:00,
2013-04-23 15:04:00,41.8,39.1,29.86,North,0,0.0,0.0,90,0.00,,,0.00,WUHU216HW,2013-04-23 19:04:00,
2013-04-23 15:29:00,41.6,39.2,29.85,North,0,0.0,0.0,91,0.00,,,0.00,WUHU216HW,2013-04-23 19:29:00,
2013-04-23 15:34:00,41.6,39.2,29.85,North,0,0.0,0.0,91,0.00,,,0.00,WUHU216HW,2013-04-23 19:34:00,
2013-04-23 15:59:00,41.4,39.0,29.84,North,0,0.0,0.0,91,0.00,,,0.00,WUHU216HW,2013-04-23 19:59:00,
2013-04-23 16:04:00,41.4,39.0,29.84,North,0,0.0,0.0,91,0.00,,,0.00,WUHU216HW,2013-04-23 20:04:00,
2013-04-23 16:29:00,41.4,39.0,29.84,North,0,0.0,0.0,91,0.00,,,0.00,WUHU216HW,2013-04-23 20:29:00,
2013-04-23 16:34:00,41.4,39.0,29.84,North,0,0.0,0.0,91,0.00,,,0.00,WUHU216HW,2013-04-23 20:34:00,
2013-04-23 16:59:00,41.4,39.2,29.83,North,0,0.0,0.0,92,0.00,,,0.00,WUHU216HW,2013-04-23 20:59:00,
2013-04-23 17:04:00,41.4,39.2,29.83,North,0,0.0,0.0,92,0.00,,,0.00,WUHU216HW,2013-04-23 21:04:00,
2013-04-23 17:29:00,41.4,39.5,29.83,North,0,0.0,0.0,93,0.00,,,0.00,WUHU216HW,2013-04-23 21:29:00,
2013-04-23 17:34:00,41.4,39.5,29.83,North,0,0.0,0.0,93,0.00,,,0.00,WUHU216HW,2013-04-23 21:34:00,
2013-04-23 17:59:00,41.4,39.5,29.81,North,0,0.0,0.0,93,0.00,,,0.00,WUHU216HW,2013-04-23 21:59:00,
2013-04-23 18:04:00,41.4,39.5,29.81,North,0,0.0,0.0,93,0.00,,,0.00,WUHU216HW,2013-04-23 22:04:00,
2013-04-23 18:29:00,41.4,39.5,29.79,North,0,0.0,0.0,93,0.00,,,0.00,WUHU216HW,2013-04-23 22:29:00,
2013-04-23 18:34:00,41.4,39.5,29.79,North,0,0.0,0.0,93,0.00,,,0.00,WUHU216HW,2013-04-23 22:34:00,
2013-04-23 18:59:00,41.4,39.5,29.78,North,0,0.0,0.0,93,0.00,,,0.00,WUHU216HW,2013-04-23 22:59:00,
2013-04-23 19:04:00,41.4,39.5,29.78,North,0,0.0,0.0,93,0.00,,,0.00,WUHU216HW,2013-04-23 23:04:00,
2013-04-23 19:29:00,41.4,39.5,29.77,North,0,0.0,0.0,93,0.00,,,0.00,WUHU216HW,2013-04-23 23:29:00,
2013-04-23 19:34:00,41.4,39.5,29.77,North,0,0.0,0.0,93,0.00,,,0.00,WUHU216HW,2013-04-23 23:34:00,
2013-04-23 19:59:00,41.2,39.3,29.76,North,0,0.0,0.0,93,0.00,,,0.00,WUHU216HW,2013-04-23 23:59:00,
2013-04-23 20:04:00,41.2,39.3,29.76,North,0,0.0,0.0,93,0.00,,,0.00,WUHU216HW,2013-04-24 00:04:00,
2013-04-23 20:29:00,41.0,39.4,29.75,North,0,0.0,0.0,94,0.00,,,0.00,WUHU216HW,2013-04-24 00:29:00,
2013-04-23 20:34:00,41.0,39.4,29.75,North,0,0.0,0.0,94,0.00,,,0.00,WUHU216HW,2013-04-24 00:34:00,
2013-04-23 20:59:00,41.0,39.4,29.74,North,0,0.0,0.0,94,0.00,,,0.00,WUHU216HW,2013-04-24 00:59:00,
2013-04-23 21:04:00,41.0,39.4,29.74,North,0,0.0,0.0,94,0.00,,,0.00,WUHU216HW,2013-04-24 01:04:00,
2013-04-23 21:29:00,41.2,39.6,29.71,North,0,0.0,0.0,94,0.00,,,0.00,WUHU216HW,2013-04-24 01:29:00,
2013-04-23 21:34:00,41.2,39.6,29.71,North,0,0.0,0.0,94,0.00,,,0.00,WUHU216HW,2013-04-24 01:34:00,
2013-04-23 21:59:00,41.4,39.8,29.71,North,0,0.0,0.0,94,0.00,,,0.00,WUHU216HW,2013-04-24 01:59:00,
2013-04-23 22:04:00,41.4,39.8,29.71,North,0,0.0,0.0,94,0.00,,,0.00,WUHU216HW,2013-04-24 02:04:00,
2013-04-23 22:29:00,41.6,40.0,29.70,North,0,0.0,0.0,94,0.00,,,0.00,WUHU216HW,2013-04-24 02:29:00,
2013-04-23 22:30:00,41.6,40.0,29.70,North,0,0.0,0.0,94,0.00,,,0.00,WUHU216HW,2013-04-24 02:30:00,
2013-04-23 22:34:00,41.6,40.0,29.70,North,0,0.0,0.0,94,0.00,,,0.00,WUHU216HW,2013-04-24 02:34:00,
2013-04-23 22:59:00,41.8,40.4,29.68,North,0,0.0,0.0,95,0.00,,,0.00,WUHU216HW,2013-04-24 02:59:00,
2013-04-23 23:05:00,41.8,40.4,29.68,North,0,0.0,0.0,95,0.00,,,0.00,WUHU216HW,2013-04-24 03:05:00,
2013-04-23 23:29:00,41.8,40.4,29.66,North,0,0.0,0.0,95,0.00,,,0.00,WUHU216HW,2013-04-24 03:29:00,
2013-04-23 23:30:00,41.8,40.4,29.66,North,0,0.0,0.0,95,0.00,,,0.00,WUHU216HW,2013-04-24 03:30:00,
2013-04-23 23:34:00,41.8,40.4,29.66,North,0,0.0,0.0,95,0.00,,,0.00,WUHU216HW,2013-04-24 03:34:00,
2013-04-23 23:59:00,41.9,40.6,29.65,North,0,0.0,0.0,95,0.00,,,0.00,WUHU216HW,2013-04-24 03:59:00,